NBL778 PANC-PAJN
Flight info
| Callsign | NBL778 |
|---|---|
| Flight time | N/A |
| Altitude | 35000 |
| Route | PANC/07L N0438F350 DCT NOEND DCT CUSHI DCT PAJN/08 |
| Aircraft | B738/M-SDE2E3FGHIRWXY/LB1 |
Departure
| Time | N/A |
|---|---|
| Airport | Ted Stevens Anchorage International Airport (PANC) |
Arrival
| Time | 2026-04-17 19:54 |
|---|---|
| Airport | Juneau International Airport (PAJN) |
| Time | Latitude | Longitude | Altitude | Speed | Heading |
|---|---|---|---|---|---|
| 2026-04-17 19:37 | 58.57763 | -136.22673 | 20956 ft | 446 kts | 121° |
| 2026-04-17 19:37 | 58.56322 | -136.17430 | 20194 ft | 443 kts | 121° |
| 2026-04-17 19:37 | 58.54884 | -136.12215 | 19448 ft | 441 kts | 121° |
| 2026-04-17 19:38 | 58.53453 | -136.07036 | 18741 ft | 439 kts | 121° |
| 2026-04-17 19:38 | 58.52027 | -136.01890 | 17961 ft | 436 kts | 122° |
| 2026-04-17 19:38 | 58.50627 | -135.96837 | 17136 ft | 423 kts | 122° |
| 2026-04-17 19:38 | 58.49267 | -135.91939 | 16354 ft | 411 kts | 122° |
| 2026-04-17 19:39 | 58.47960 | -135.87243 | 15592 ft | 401 kts | 122° |
| 2026-04-17 19:39 | 58.46668 | -135.82618 | 15087 ft | 386 kts | 122° |
| 2026-04-17 19:39 | 58.45417 | -135.78149 | 14551 ft | 375 kts | 122° |
| 2026-04-17 19:39 | 58.44200 | -135.73816 | 14010 ft | 366 kts | 122° |
| 2026-04-17 19:40 | 58.43011 | -135.69583 | 13414 ft | 358 kts | 122° |
| 2026-04-17 19:40 | 58.41846 | -135.65442 | 12822 ft | 351 kts | 122° |
| 2026-04-17 19:40 | 58.40700 | -135.61380 | 12240 ft | 345 kts | 122° |
| 2026-04-17 19:40 | 58.39605 | -135.57349 | 11676 ft | 341 kts | 116° |
| 2026-04-17 19:41 | 58.39160 | -135.52916 | 11114 ft | 343 kts | 90° |
| 2026-04-17 19:41 | 58.39669 | -135.48576 | 10681 ft | 331 kts | 66° |
| 2026-04-17 19:41 | 58.40956 | -135.45134 | 10296 ft | 310 kts | 40° |
| 2026-04-17 19:41 | 58.42608 | -135.42653 | 9918 ft | 297 kts | 29° |
| 2026-04-17 19:42 | 58.44479 | -135.41243 | 9558 ft | 284 kts | 11° |
| 2026-04-17 19:42 | 58.46374 | -135.40360 | 9220 ft | 278 kts | 10° |
| 2026-04-17 19:42 | 58.48249 | -135.39498 | 8885 ft | 278 kts | 10° |
| 2026-04-17 19:42 | 58.50101 | -135.38382 | 8586 ft | 282 kts | 28° |
| 2026-04-17 19:43 | 58.51472 | -135.35737 | 8330 ft | 283 kts | 63° |
| 2026-04-17 19:43 | 58.52269 | -135.32309 | 8116 ft | 282 kts | 68° |
| 2026-04-17 19:43 | 58.53107 | -135.28928 | 7883 ft | 279 kts | 65° |
| 2026-04-17 19:43 | 58.53902 | -135.25580 | 7688 ft | 273 kts | 67° |
| 2026-04-17 19:44 | 58.54673 | -135.22329 | 7527 ft | 272 kts | 67° |
| 2026-04-17 19:44 | 58.55459 | -135.19043 | 7347 ft | 270 kts | 67° |
| 2026-04-17 19:44 | 58.56243 | -135.15788 | 7130 ft | 268 kts | 67° |
| 2026-04-17 19:44 | 58.56939 | -135.12510 | 6889 ft | 263 kts | 82° |
| 2026-04-17 19:45 | 58.56834 | -135.09132 | 6663 ft | 249 kts | 114° |
| 2026-04-17 19:45 | 58.55955 | -135.06453 | 6427 ft | 232 kts | 140° |
| 2026-04-17 19:45 | 58.54679 | -135.04718 | 6186 ft | 222 kts | 158° |
| 2026-04-17 19:45 | 58.53242 | -135.03948 | 5910 ft | 210 kts | 174° |
| 2026-04-17 19:46 | 58.51818 | -135.03657 | 5630 ft | 202 kts | 176° |
| 2026-04-17 19:46 | 58.50435 | -135.03427 | 5352 ft | 197 kts | 177° |
| 2026-04-17 19:46 | 58.49083 | -135.03205 | 5089 ft | 193 kts | 177° |
| 2026-04-17 19:46 | 58.47760 | -135.02982 | 4828 ft | 189 kts | 177° |
| 2026-04-17 19:47 | 58.46466 | -135.02763 | 4542 ft | 185 kts | 177° |
| 2026-04-17 19:47 | 58.45198 | -135.02546 | 4288 ft | 181 kts | 176° |
| 2026-04-17 19:47 | 58.43957 | -135.02330 | 4097 ft | 178 kts | 176° |
| 2026-04-17 19:47 | 58.42722 | -135.02116 | 3916 ft | 179 kts | 176° |
| 2026-04-17 19:48 | 58.41477 | -135.01898 | 3734 ft | 180 kts | 176° |
| 2026-04-17 19:48 | 58.40243 | -135.01683 | 3567 ft | 181 kts | 176° |
| 2026-04-17 19:48 | 58.38978 | -135.01461 | 3420 ft | 180 kts | 175° |
| 2026-04-17 19:48 | 58.37757 | -135.01247 | 3395 ft | 175 kts | 175° |
| 2026-04-17 19:49 | 58.36660 | -135.00704 | 3350 ft | 157 kts | 149° |
| 2026-04-17 19:49 | 58.35938 | -134.99160 | 3154 ft | 160 kts | 121° |
| 2026-04-17 19:49 | 58.35719 | -134.97081 | 2971 ft | 163 kts | 94° |
| 2026-04-17 19:49 | 58.35717 | -134.94919 | 2835 ft | 163 kts | 94° |
| 2026-04-17 19:50 | 58.35716 | -134.92730 | 2713 ft | 167 kts | 94° |
| 2026-04-17 19:50 | 58.35721 | -134.90550 | 2629 ft | 159 kts | 94° |
| 2026-04-17 19:50 | 58.35726 | -134.88437 | 2741 ft | 161 kts | 94° |
| 2026-04-17 19:50 | 58.35731 | -134.86269 | 2588 ft | 165 kts | 94° |
| 2026-04-17 19:51 | 58.35736 | -134.84081 | 2358 ft | 163 kts | 93° |
| 2026-04-17 19:51 | 58.35743 | -134.81945 | 2172 ft | 159 kts | 92° |
| 2026-04-17 19:51 | 58.35750 | -134.79861 | 2115 ft | 157 kts | 92° |
| 2026-04-17 19:51 | 58.35755 | -134.77771 | 2023 ft | 158 kts | 92° |
| 2026-04-17 19:52 | 58.35761 | -134.75670 | 1912 ft | 159 kts | 92° |
| 2026-04-17 19:52 | 58.35766 | -134.73575 | 1816 ft | 156 kts | 92° |
| 2026-04-17 19:52 | 58.35771 | -134.71568 | 1638 ft | 148 kts | 92° |
| 2026-04-17 19:52 | 58.35775 | -134.69636 | 1467 ft | 144 kts | 92° |
| 2026-04-17 19:53 | 58.35777 | -134.67740 | 1145 ft | 151 kts | 95° |
| 2026-04-17 19:53 | 58.35787 | -134.65690 | 849 ft | 153 kts | 89° |
| 2026-04-17 19:53 | 58.35916 | -134.63695 | 559 ft | 144 kts | 86° |
| 2026-04-17 19:53 | 58.35991 | -134.61901 | 387 ft | 129 kts | 97° |
| 2026-04-17 19:54 | 58.35853 | -134.60242 | 152 ft | 125 kts | 105° |
| 2026-04-17 19:54 | 58.35663 | -134.58784 | 38 ft | 101 kts | 107° |
| 2026-04-17 19:54 | 58.35517 | -134.57772 | 35 ft | 50 kts | 105° |
| 2026-04-17 19:54 | 58.35462 | -134.57383 | 34 ft | 14 kts | 103° |
| 2026-04-17 19:55 | 58.35518 | -134.57272 | 33 ft | 15 kts | 15° |
| 2026-04-17 19:55 | 58.35577 | -134.57402 | 34 ft | 23 kts | 284° |
| 2026-04-17 19:55 | 58.35629 | -134.57794 | 34 ft | 34 kts | 285° |
| 2026-04-17 19:55 | 58.35712 | -134.57948 | 33 ft | 19 kts | 315° |
| 2026-04-17 19:56 | 58.35745 | -134.58172 | 32 ft | 12 kts | 287° |
| 2026-04-17 19:56 | 58.35780 | -134.58378 | 34 ft | 18 kts | 286° |
| 2026-04-17 19:56 | 58.35808 | -134.58614 | 34 ft | 18 kts | 282° |
| 2026-04-17 19:56 | 58.35854 | -134.58709 | 34 ft | 8 kts | 357° |
| 2026-04-17 19:57 | 58.35871 | -134.58710 | 32 ft | 0 kts | 358° |